sensor_id;sensor_type;location;lat;lon;timestamp;P1;durP1;ratioP1;P2;durP2;ratioP2
12437;SDS011;6283;51.330;12.374;2023-10-09T00:01:45;3.53;;;2.70;;
12437;SDS011;6283;51.330;12.374;2023-10-09T00:04:11;2.67;;;2.33;;
12437;SDS011;6283;51.330;12.374;2023-10-09T00:06:39;2.70;;;2.20;;
12437;SDS011;6283;51.330;12.374;2023-10-09T00:09:07;3.73;;;2.40;;
12437;SDS011;6283;51.330;12.374;2023-10-09T00:11:55;3.20;;;2.40;;
12437;SDS011;6283;51.330;12.374;2023-10-09T00:14:31;4.27;;;2.53;;
12437;SDS011;6283;51.330;12.374;2023-10-09T00:17:03;3.80;;;2.50;;
12437;SDS011;6283;51.330;12.374;2023-10-09T00:19:35;2.53;;;2.20;;
12437;SDS011;6283;51.330;12.374;2023-10-09T00:22:02;4.10;;;2.80;;
12437;SDS011;6283;51.330;12.374;2023-10-09T00:24:46;4.23;;;2.90;;
12437;SDS011;6283;51.330;12.374;2023-10-09T00:27:15;3.10;;;2.80;;
12437;SDS011;6283;51.330;12.374;2023-10-09T00:29:42;3.23;;;2.70;;
12437;SDS011;6283;51.330;12.374;2023-10-09T00:32:11;2.80;;;2.57;;
12437;SDS011;6283;51.330;12.374;2023-10-09T00:34:52;3.13;;;2.73;;
12437;SDS011;6283;51.330;12.374;2023-10-09T00:37:23;3.67;;;2.73;;
12437;SDS011;6283;51.330;12.374;2023-10-09T00:39:50;3.20;;;2.40;;
12437;SDS011;6283;51.330;12.374;2023-10-09T00:42:23;4.63;;;2.70;;
12437;SDS011;6283;51.330;12.374;2023-10-09T00:44:55;4.97;;;3.07;;
12437;SDS011;6283;51.330;12.374;2023-10-09T00:47:21;6.30;;;2.70;;
12437;SDS011;6283;51.330;12.374;2023-10-09T00:49:54;5.50;;;3.00;;
12437;SDS011;6283;51.330;12.374;2023-10-09T00:52:47;6.73;;;3.23;;
12437;SDS011;6283;51.330;12.374;2023-10-09T00:55:26;4.57;;;2.60;;
12437;SDS011;6283;51.330;12.374;2023-10-09T00:58:02;3.33;;;3.03;;
12437;SDS011;6283;51.330;12.374;2023-10-09T01:00:34;4.67;;;3.10;;
12437;SDS011;6283;51.330;12.374;2023-10-09T01:03:10;6.20;;;3.27;;
12437;SDS011;6283;51.330;12.374;2023-10-09T01:08:22;4.47;;;2.70;;
12437;SDS011;6283;51.330;12.374;2023-10-09T01:11:18;5.53;;;3.10;;
12437;SDS011;6283;51.330;12.374;2023-10-09T01:13:44;3.77;;;2.80;;
12437;SDS011;6283;51.330;12.374;2023-10-09T01:16:11;3.23;;;2.90;;
12437;SDS011;6283;51.330;12.374;2023-10-09T01:18:41;4.20;;;3.00;;
12437;SDS011;6283;51.330;12.374;2023-10-09T01:21:08;4.30;;;3.10;;
12437;SDS011;6283;51.330;12.374;2023-10-09T01:23:43;4.50;;;2.70;;
12437;SDS011;6283;51.330;12.374;2023-10-09T01:26:29;3.97;;;2.77;;
12437;SDS011;6283;51.330;12.374;2023-10-09T01:28:59;3.40;;;3.10;;
12437;SDS011;6283;51.330;12.374;2023-10-09T01:31:25;3.17;;;2.60;;
12437;SDS011;6283;51.330;12.374;2023-10-09T01:33:52;3.27;;;2.63;;
12437;SDS011;6283;51.330;12.374;2023-10-09T01:36:24;4.00;;;2.80;;
12437;SDS011;6283;51.330;12.374;2023-10-09T01:38:58;3.43;;;3.03;;
12437;SDS011;6283;51.330;12.374;2023-10-09T01:41:24;2.93;;;2.50;;
12437;SDS011;6283;51.330;12.374;2023-10-09T01:43:50;4.37;;;2.70;;
12437;SDS011;6283;51.330;12.374;2023-10-09T01:46:18;3.93;;;3.17;;
12437;SDS011;6283;51.330;12.374;2023-10-09T01:48:45;4.30;;;2.83;;
12437;SDS011;6283;51.330;12.374;2023-10-09T01:51:14;3.93;;;2.73;;
12437;SDS011;6283;51.330;12.374;2023-10-09T01:53:43;4.00;;;3.20;;
12437;SDS011;6283;51.330;12.374;2023-10-09T01:56:12;3.57;;;3.20;;
12437;SDS011;6283;51.330;12.374;2023-10-09T01:58:40;3.77;;;3.00;;
12437;SDS011;6283;51.330;12.374;2023-10-09T02:01:07;3.00;;;2.70;;
12437;SDS011;6283;51.330;12.374;2023-10-09T02:03:34;4.23;;;2.87;;
12437;SDS011;6283;51.330;12.374;2023-10-09T02:06:02;3.60;;;2.93;;
12437;SDS011;6283;51.330;12.374;2023-10-09T02:08:43;2.80;;;2.47;;
12437;SDS011;6283;51.330;12.374;2023-10-09T02:11:14;3.30;;;2.63;;
12437;SDS011;6283;51.330;12.374;2023-10-09T02:13:49;3.70;;;3.00;;
12437;SDS011;6283;51.330;12.374;2023-10-09T02:16:22;3.37;;;2.40;;
12437;SDS011;6283;51.330;12.374;2023-10-09T02:18:54;4.13;;;2.90;;
12437;SDS011;6283;51.330;12.374;2023-10-09T02:21:24;2.80;;;2.57;;
12437;SDS011;6283;51.330;12.374;2023-10-09T02:24:04;4.20;;;2.73;;
12437;SDS011;6283;51.330;12.374;2023-10-09T02:26:51;5.60;;;3.10;;
12437;SDS011;6283;51.330;12.374;2023-10-09T02:29:17;3.20;;;2.90;;
12437;SDS011;6283;51.330;12.374;2023-10-09T02:31:42;7.23;;;3.27;;
12437;SDS011;6283;51.330;12.374;2023-10-09T02:34:17;3.93;;;3.03;;
12437;SDS011;6283;51.330;12.374;2023-10-09T02:36:47;4.37;;;3.20;;
12437;SDS011;6283;51.330;12.374;2023-10-09T02:39:23;4.00;;;2.63;;
12437;SDS011;6283;51.330;12.374;2023-10-09T02:41:53;5.70;;;2.97;;
12437;SDS011;6283;51.330;12.374;2023-10-09T02:44:32;3.97;;;2.80;;
12437;SDS011;6283;51.330;12.374;2023-10-09T02:47:04;4.60;;;2.97;;
12437;SDS011;6283;51.330;12.374;2023-10-09T02:49:36;3.47;;;3.10;;
12437;SDS011;6283;51.330;12.374;2023-10-09T02:52:05;4.43;;;3.10;;
12437;SDS011;6283;51.330;12.374;2023-10-09T02:54:32;3.73;;;3.13;;
12437;SDS011;6283;51.330;12.374;2023-10-09T02:57:06;3.70;;;3.30;;
12437;SDS011;6283;51.330;12.374;2023-10-09T02:59:32;4.37;;;3.30;;
12437;SDS011;6283;51.330;12.374;2023-10-09T03:01:58;4.33;;;2.90;;
12437;SDS011;6283;51.330;12.374;2023-10-09T03:04:27;4.97;;;3.07;;
12437;SDS011;6283;51.330;12.374;2023-10-09T03:06:56;3.30;;;3.00;;
12437;SDS011;6283;51.330;12.374;2023-10-09T03:09:22;6.37;;;2.83;;
12437;SDS011;6283;51.330;12.374;2023-10-09T03:11:56;4.90;;;3.03;;
12437;SDS011;6283;51.330;12.374;2023-10-09T03:14:31;3.50;;;2.47;;
12437;SDS011;6283;51.330;12.374;2023-10-09T03:17:00;3.43;;;3.00;;
12437;SDS011;6283;51.330;12.374;2023-10-09T03:19:26;3.63;;;2.93;;
12437;SDS011;6283;51.330;12.374;2023-10-09T03:21:54;4.73;;;3.60;;
12437;SDS011;6283;51.330;12.374;2023-10-09T03:24:22;4.53;;;3.10;;
12437;SDS011;6283;51.330;12.374;2023-10-09T03:26:48;4.30;;;2.93;;
12437;SDS011;6283;51.330;12.374;2023-10-09T03:29:15;4.77;;;3.50;;
12437;SDS011;6283;51.330;12.374;2023-10-09T03:31:44;3.97;;;2.70;;
12437;SDS011;6283;51.330;12.374;2023-10-09T03:34:11;3.70;;;3.20;;
12437;SDS011;6283;51.330;12.374;2023-10-09T03:36:37;3.37;;;3.07;;
12437;SDS011;6283;51.330;12.374;2023-10-09T03:39:03;3.50;;;2.97;;
12437;SDS011;6283;51.330;12.374;2023-10-09T03:41:43;3.00;;;2.70;;
12437;SDS011;6283;51.330;12.374;2023-10-09T03:44:12;3.63;;;2.90;;
12437;SDS011;6283;51.330;12.374;2023-10-09T03:46:38;3.50;;;3.17;;
12437;SDS011;6283;51.330;12.374;2023-10-09T03:49:04;4.10;;;3.30;;
12437;SDS011;6283;51.330;12.374;2023-10-09T03:51:35;3.77;;;3.03;;
12437;SDS011;6283;51.330;12.374;2023-10-09T03:54:02;4.57;;;3.37;;
12437;SDS011;6283;51.330;12.374;2023-10-09T03:56:32;3.73;;;3.13;;
12437;SDS011;6283;51.330;12.374;2023-10-09T03:58:58;2.97;;;2.67;;
12437;SDS011;6283;51.330;12.374;2023-10-09T04:01:25;4.60;;;3.00;;
12437;SDS011;6283;51.330;12.374;2023-10-09T04:03:54;3.37;;;3.07;;
12437;SDS011;6283;51.330;12.374;2023-10-09T04:06:24;3.73;;;3.43;;
12437;SDS011;6283;51.330;12.374;2023-10-09T04:14:33;4.90;;;3.70;;
12437;SDS011;6283;51.330;12.374;2023-10-09T04:16:59;4.60;;;3.57;;
12437;SDS011;6283;51.330;12.374;2023-10-09T04:19:54;5.50;;;3.60;;
12437;SDS011;6283;51.330;12.374;2023-10-09T04:22:38;7.30;;;3.57;;
12437;SDS011;6283;51.330;12.374;2023-10-09T04:25:07;3.50;;;3.10;;
12437;SDS011;6283;51.330;12.374;2023-10-09T04:27:40;4.47;;;3.10;;
12437;SDS011;6283;51.330;12.374;2023-10-09T04:30:06;4.13;;;3.73;;
12437;SDS011;6283;51.330;12.374;2023-10-09T04:32:33;4.77;;;3.90;;
12437;SDS011;6283;51.330;12.374;2023-10-09T04:35:00;6.13;;;3.87;;
12437;SDS011;6283;51.330;12.374;2023-10-09T04:37:44;4.87;;;3.10;;
12437;SDS011;6283;51.330;12.374;2023-10-09T04:40:17;6.53;;;3.80;;
12437;SDS011;6283;51.330;12.374;2023-10-09T04:43:02;6.03;;;3.67;;
12437;SDS011;6283;51.330;12.374;2023-10-09T04:45:31;4.00;;;3.10;;
12437;SDS011;6283;51.330;12.374;2023-10-09T04:48:22;5.70;;;3.90;;
12437;SDS011;6283;51.330;12.374;2023-10-09T04:51:03;4.40;;;3.73;;
12437;SDS011;6283;51.330;12.374;2023-10-09T04:53:45;5.33;;;3.53;;
12437;SDS011;6283;51.330;12.374;2023-10-09T04:56:30;5.67;;;4.00;;
12437;SDS011;6283;51.330;12.374;2023-10-09T04:58:58;5.77;;;3.77;;
12437;SDS011;6283;51.330;12.374;2023-10-09T05:01:33;3.90;;;3.30;;
12437;SDS011;6283;51.330;12.374;2023-10-09T05:04:08;4.23;;;3.60;;
12437;SDS011;6283;51.330;12.374;2023-10-09T05:06:52;5.07;;;3.53;;
12437;SDS011;6283;51.330;12.374;2023-10-09T05:09:21;4.63;;;3.40;;
12437;SDS011;6283;51.330;12.374;2023-10-09T05:11:47;6.10;;;3.93;;
12437;SDS011;6283;51.330;12.374;2023-10-09T05:14:19;5.30;;;3.80;;
12437;SDS011;6283;51.330;12.374;2023-10-09T05:16:52;6.73;;;4.40;;
12437;SDS011;6283;51.330;12.374;2023-10-09T05:19:26;8.03;;;3.93;;
12437;SDS011;6283;51.330;12.374;2023-10-09T05:22:09;6.10;;;4.20;;
12437;SDS011;6283;51.330;12.374;2023-10-09T05:25:07;4.30;;;3.50;;
12437;SDS011;6283;51.330;12.374;2023-10-09T05:27:41;5.83;;;4.17;;
12437;SDS011;6283;51.330;12.374;2023-10-09T05:30:15;9.23;;;3.97;;
12437;SDS011;6283;51.330;12.374;2023-10-09T05:32:53;7.13;;;4.97;;
12437;SDS011;6283;51.330;12.374;2023-10-09T05:35:23;4.97;;;4.13;;
12437;SDS011;6283;51.330;12.374;2023-10-09T05:38:04;6.53;;;4.40;;
12437;SDS011;6283;51.330;12.374;2023-10-09T05:40:40;5.10;;;4.07;;
12437;SDS011;6283;51.330;12.374;2023-10-09T05:43:08;6.70;;;4.23;;
12437;SDS011;6283;51.330;12.374;2023-10-09T05:45:54;5.90;;;4.70;;
12437;SDS011;6283;51.330;12.374;2023-10-09T05:48:40;5.27;;;4.40;;
12437;SDS011;6283;51.330;12.374;2023-10-09T05:51:05;5.83;;;4.13;;
12437;SDS011;6283;51.330;12.374;2023-10-09T05:53:34;7.07;;;4.50;;
12437;SDS011;6283;51.330;12.374;2023-10-09T05:56:09;11.90;;;4.73;;
12437;SDS011;6283;51.330;12.374;2023-10-09T05:58:53;5.93;;;4.60;;
12437;SDS011;6283;51.330;12.374;2023-10-09T06:01:38;8.70;;;4.50;;
12437;SDS011;6283;51.330;12.374;2023-10-09T06:04:16;8.03;;;4.77;;
12437;SDS011;6283;51.330;12.374;2023-10-09T06:06:44;8.93;;;5.03;;
12437;SDS011;6283;51.330;12.374;2023-10-09T06:09:11;7.30;;;4.73;;
12437;SDS011;6283;51.330;12.374;2023-10-09T06:11:38;6.33;;;4.63;;
12437;SDS011;6283;51.330;12.374;2023-10-09T06:14:04;7.97;;;4.70;;
12437;SDS011;6283;51.330;12.374;2023-10-09T06:16:36;8.27;;;4.80;;
12437;SDS011;6283;51.330;12.374;2023-10-09T06:19:07;7.27;;;4.80;;
12437;SDS011;6283;51.330;12.374;2023-10-09T06:21:36;5.60;;;4.60;;
12437;SDS011;6283;51.330;12.374;2023-10-09T06:24:25;9.53;;;5.00;;
12437;SDS011;6283;51.330;12.374;2023-10-09T06:26:58;6.50;;;5.03;;
12437;SDS011;6283;51.330;12.374;2023-10-09T06:29:27;8.93;;;5.47;;
12437;SDS011;6283;51.330;12.374;2023-10-09T06:32:20;12.30;;;5.47;;
12437;SDS011;6283;51.330;12.374;2023-10-09T06:34:52;6.20;;;4.77;;
12437;SDS011;6283;51.330;12.374;2023-10-09T06:37:44;6.93;;;5.20;;
12437;SDS011;6283;51.330;12.374;2023-10-09T06:40:26;10.77;;;5.23;;
12437;SDS011;6283;51.330;12.374;2023-10-09T06:43:47;10.07;;;5.63;;
12437;SDS011;6283;51.330;12.374;2023-10-09T06:46:18;9.80;;;6.17;;
12437;SDS011;6283;51.330;12.374;2023-10-09T06:48:49;10.73;;;6.53;;
12437;SDS011;6283;51.330;12.374;2023-10-09T06:51:21;9.93;;;5.40;;
12437;SDS011;6283;51.330;12.374;2023-10-09T06:53:53;10.13;;;5.80;;
12437;SDS011;6283;51.330;12.374;2023-10-09T06:56:23;9.20;;;6.23;;
12437;SDS011;6283;51.330;12.374;2023-10-09T06:58:59;9.33;;;6.67;;
12437;SDS011;6283;51.330;12.374;2023-10-09T07:01:41;9.30;;;6.37;;
12437;SDS011;6283;51.330;12.374;2023-10-09T07:04:11;13.83;;;6.57;;
12437;SDS011;6283;51.330;12.374;2023-10-09T07:06:48;10.93;;;6.93;;
12437;SDS011;6283;51.330;12.374;2023-10-09T07:09:14;12.27;;;6.67;;
12437;SDS011;6283;51.330;12.374;2023-10-09T07:11:44;13.27;;;6.73;;
12437;SDS011;6283;51.330;12.374;2023-10-09T07:14:18;16.77;;;7.80;;
12437;SDS011;6283;51.330;12.374;2023-10-09T07:19:28;12.07;;;6.90;;
12437;SDS011;6283;51.330;12.374;2023-10-09T07:22:06;12.07;;;7.50;;
12437;SDS011;6283;51.330;12.374;2023-10-09T07:25:01;12.10;;;7.00;;
12437;SDS011;6283;51.330;12.374;2023-10-09T07:27:41;15.63;;;7.43;;
12437;SDS011;6283;51.330;12.374;2023-10-09T07:30:10;14.60;;;8.43;;
12437;SDS011;6283;51.330;12.374;2023-10-09T07:32:52;12.00;;;7.40;;
12437;SDS011;6283;51.330;12.374;2023-10-09T07:35:20;15.03;;;7.57;;
12437;SDS011;6283;51.330;12.374;2023-10-09T07:38:05;13.50;;;7.83;;
12437;SDS011;6283;51.330;12.374;2023-10-09T07:40:33;12.40;;;7.93;;
12437;SDS011;6283;51.330;12.374;2023-10-09T07:43:25;12.43;;;8.43;;
12437;SDS011;6283;51.330;12.374;2023-10-09T07:46:03;12.93;;;7.97;;
12437;SDS011;6283;51.330;12.374;2023-10-09T07:48:29;16.13;;;7.80;;
12437;SDS011;6283;51.330;12.374;2023-10-09T07:51:11;14.40;;;7.30;;
12437;SDS011;6283;51.330;12.374;2023-10-09T07:53:37;15.83;;;8.27;;
12437;SDS011;6283;51.330;12.374;2023-10-09T07:56:09;14.10;;;7.00;;
12437;SDS011;6283;51.330;12.374;2023-10-09T07:58:49;10.90;;;6.43;;
12437;SDS011;6283;51.330;12.374;2023-10-09T08:01:15;19.43;;;8.20;;
12437;SDS011;6283;51.330;12.374;2023-10-09T08:03:46;13.40;;;7.03;;
12437;SDS011;6283;51.330;12.374;2023-10-09T08:06:12;14.83;;;7.97;;
12437;SDS011;6283;51.330;12.374;2023-10-09T08:08:57;15.03;;;7.90;;
12437;SDS011;6283;51.330;12.374;2023-10-09T08:11:38;13.43;;;7.47;;
12437;SDS011;6283;51.330;12.374;2023-10-09T08:14:10;18.03;;;7.70;;
12437;SDS011;6283;51.330;12.374;2023-10-09T08:16:45;14.93;;;7.50;;
12437;SDS011;6283;51.330;12.374;2023-10-09T08:19:11;14.10;;;6.30;;
12437;SDS011;6283;51.330;12.374;2023-10-09T08:21:55;14.57;;;7.50;;
12437;SDS011;6283;51.330;12.374;2023-10-09T08:24:39;14.57;;;7.03;;
12437;SDS011;6283;51.330;12.374;2023-10-09T08:27:09;16.90;;;8.77;;
12437;SDS011;6283;51.330;12.374;2023-10-09T08:29:53;12.90;;;8.17;;
12437;SDS011;6283;51.330;12.374;2023-10-09T08:32:39;14.23;;;7.77;;
12437;SDS011;6283;51.330;12.374;2023-10-09T08:35:07;10.43;;;6.60;;
12437;SDS011;6283;51.330;12.374;2023-10-09T08:37:54;15.53;;;8.07;;
12437;SDS011;6283;51.330;12.374;2023-10-09T08:40:33;12.60;;;7.60;;
12437;SDS011;6283;51.330;12.374;2023-10-09T08:43:21;13.17;;;7.97;;
12437;SDS011;6283;51.330;12.374;2023-10-09T08:48:13;12.90;;;6.77;;
12437;SDS011;6283;51.330;12.374;2023-10-09T08:50:43;14.33;;;7.60;;
12437;SDS011;6283;51.330;12.374;2023-10-09T08:53:10;16.03;;;7.50;;
12437;SDS011;6283;51.330;12.374;2023-10-09T08:55:37;13.18;;;7.38;;
12437;SDS011;6283;51.330;12.374;2023-10-09T08:58:04;14.57;;;7.87;;
12437;SDS011;6283;51.330;12.374;2023-10-09T09:00:42;14.68;;;7.68;;
12437;SDS011;6283;51.330;12.374;2023-10-09T09:03:11;15.23;;;7.33;;
12437;SDS011;6283;51.330;12.374;2023-10-09T09:05:40;15.70;;;7.87;;
12437;SDS011;6283;51.330;12.374;2023-10-09T09:08:20;13.07;;;7.93;;
12437;SDS011;6283;51.330;12.374;2023-10-09T09:10:51;14.52;;;8.00;;
12437;SDS011;6283;51.330;12.374;2023-10-09T09:13:37;14.83;;;8.13;;
12437;SDS011;6283;51.330;12.374;2023-10-09T09:16:16;13.98;;;7.03;;
12437;SDS011;6283;51.330;12.374;2023-10-09T09:18:49;14.23;;;7.47;;
12437;SDS011;6283;51.330;12.374;2023-10-09T09:21:25;16.08;;;8.15;;
12437;SDS011;6283;51.330;12.374;2023-10-09T09:24:00;15.73;;;7.90;;
12437;SDS011;6283;51.330;12.374;2023-10-09T09:26:35;15.43;;;7.97;;
12437;SDS011;6283;51.330;12.374;2023-10-09T09:29:11;14.68;;;8.02;;
12437;SDS011;6283;51.330;12.374;2023-10-09T09:31:38;15.57;;;8.23;;
12437;SDS011;6283;51.330;12.374;2023-10-09T09:34:17;13.75;;;7.95;;
12437;SDS011;6283;51.330;12.374;2023-10-09T09:36:49;13.27;;;7.88;;
12437;SDS011;6283;51.330;12.374;2023-10-09T09:39:30;15.90;;;8.37;;
12437;SDS011;6283;51.330;12.374;2023-10-09T09:41:58;19.97;;;8.20;;
12437;SDS011;6283;51.330;12.374;2023-10-09T09:44:38;18.27;;;10.98;;
12437;SDS011;6283;51.330;12.374;2023-10-09T09:47:14;17.97;;;8.10;;
12437;SDS011;6283;51.330;12.374;2023-10-09T09:49:52;15.38;;;7.88;;
12437;SDS011;6283;51.330;12.374;2023-10-09T09:52:24;14.57;;;8.55;;
12437;SDS011;6283;51.330;12.374;2023-10-09T09:55:08;15.68;;;7.93;;
12437;SDS011;6283;51.330;12.374;2023-10-09T09:57:48;12.23;;;7.75;;
12437;SDS011;6283;51.330;12.374;2023-10-09T10:00:20;17.25;;;7.93;;
12437;SDS011;6283;51.330;12.374;2023-10-09T10:03:06;14.85;;;9.45;;
12437;SDS011;6283;51.330;12.374;2023-10-09T10:05:42;18.63;;;10.38;;
12437;SDS011;6283;51.330;12.374;2023-10-09T10:08:17;15.43;;;9.13;;
12437;SDS011;6283;51.330;12.374;2023-10-09T10:10:56;20.60;;;9.23;;
12437;SDS011;6283;51.330;12.374;2023-10-09T10:14:13;36.33;;;20.55;;
12437;SDS011;6283;51.330;12.374;2023-10-09T10:16:24;17.33;;;8.50;;
12437;SDS011;6283;51.330;12.374;2023-10-09T10:19:00;15.98;;;7.53;;
12437;SDS011;6283;51.330;12.374;2023-10-09T10:21:46;15.70;;;8.18;;
12437;SDS011;6283;51.330;12.374;2023-10-09T10:35:17;16.08;;;7.32;;
12437;SDS011;6283;51.330;12.374;2023-10-09T10:38:00;13.85;;;7.18;;
12437;SDS011;6283;51.330;12.374;2023-10-09T10:40:41;16.20;;;7.63;;
12437;SDS011;6283;51.330;12.374;2023-10-09T10:43:17;10.82;;;6.57;;
12437;SDS011;6283;51.330;12.374;2023-10-09T10:46:12;15.48;;;6.68;;
12437;SDS011;6283;51.330;12.374;2023-10-09T10:48:40;12.27;;;6.70;;
12437;SDS011;6283;51.330;12.374;2023-10-09T10:51:12;12.27;;;6.45;;
12437;SDS011;6283;51.330;12.374;2023-10-09T10:53:52;15.88;;;6.82;;
12437;SDS011;6283;51.330;12.374;2023-10-09T10:56:24;10.45;;;6.03;;
12437;SDS011;6283;51.330;12.374;2023-10-09T10:59:00;18.27;;;9.77;;
12437;SDS011;6283;51.330;12.374;2023-10-09T11:01:35;12.15;;;7.10;;
12437;SDS011;6283;51.330;12.374;2023-10-09T11:04:16;14.95;;;6.97;;
12437;SDS011;6283;51.330;12.374;2023-10-09T11:06:53;9.98;;;6.25;;
12437;SDS011;6283;51.330;12.374;2023-10-09T11:09:25;9.85;;;5.88;;
12437;SDS011;6283;51.330;12.374;2023-10-09T11:12:04;11.38;;;6.43;;
12437;SDS011;6283;51.330;12.374;2023-10-09T11:14:59;10.05;;;6.20;;
12437;SDS011;6283;51.330;12.374;2023-10-09T11:17:32;9.93;;;6.78;;
12437;SDS011;6283;51.330;12.374;2023-10-09T11:20:00;9.02;;;6.05;;
12437;SDS011;6283;51.330;12.374;2023-10-09T11:22:48;12.30;;;7.05;;
12437;SDS011;6283;51.330;12.374;2023-10-09T11:25:41;9.82;;;6.45;;
12437;SDS011;6283;51.330;12.374;2023-10-09T11:28:21;13.63;;;7.20;;
12437;SDS011;6283;51.330;12.374;2023-10-09T11:31:16;11.95;;;5.82;;
12437;SDS011;6283;51.330;12.374;2023-10-09T11:33:51;12.95;;;7.03;;
12437;SDS011;6283;51.330;12.374;2023-10-09T11:36:19;14.15;;;7.05;;
12437;SDS011;6283;51.330;12.374;2023-10-09T11:38:56;11.80;;;7.25;;
12437;SDS011;6283;51.330;12.374;2023-10-09T11:41:41;12.57;;;7.72;;
12437;SDS011;6283;51.330;12.374;2023-10-09T11:44:09;13.73;;;7.28;;
12437;SDS011;6283;51.330;12.374;2023-10-09T11:47:02;13.50;;;8.48;;
12437;SDS011;6283;51.330;12.374;2023-10-09T11:52:29;17.10;;;8.23;;
12437;SDS011;6283;51.330;12.374;2023-10-09T11:55:11;13.02;;;7.13;;
12437;SDS011;6283;51.330;12.374;2023-10-09T11:57:41;11.45;;;7.35;;
12437;SDS011;6283;51.330;12.374;2023-10-09T12:00:07;11.93;;;7.85;;
12437;SDS011;6283;51.330;12.374;2023-10-09T12:02:50;12.25;;;6.78;;
12437;SDS011;6283;51.330;12.374;2023-10-09T12:05:15;11.05;;;6.70;;
12437;SDS011;6283;51.330;12.374;2023-10-09T12:07:47;13.23;;;7.43;;
12437;SDS011;6283;51.330;12.374;2023-10-09T12:10:19;15.75;;;7.47;;
12437;SDS011;6283;51.330;12.374;2023-10-09T12:12:54;15.60;;;8.10;;
12437;SDS011;6283;51.330;12.374;2023-10-09T12:15:23;16.20;;;7.55;;
12437;SDS011;6283;51.330;12.374;2023-10-09T12:17:49;15.02;;;8.15;;
12437;SDS011;6283;51.330;12.374;2023-10-09T12:20:18;13.43;;;7.28;;
12437;SDS011;6283;51.330;12.374;2023-10-09T12:22:59;20.73;;;8.00;;
12437;SDS011;6283;51.330;12.374;2023-10-09T12:25:26;15.65;;;7.57;;
12437;SDS011;6283;51.330;12.374;2023-10-09T12:27:56;13.82;;;6.95;;
12437;SDS011;6283;51.330;12.374;2023-10-09T12:30:27;13.82;;;7.60;;
12437;SDS011;6283;51.330;12.374;2023-10-09T12:32:54;16.50;;;7.60;;
12437;SDS011;6283;51.330;12.374;2023-10-09T12:35:26;15.63;;;8.15;;
12437;SDS011;6283;51.330;12.374;2023-10-09T12:37:53;14.15;;;7.43;;
12437;SDS011;6283;51.330;12.374;2023-10-09T12:40:22;15.68;;;7.65;;
12437;SDS011;6283;51.330;12.374;2023-10-09T12:42:54;19.95;;;7.82;;
12437;SDS011;6283;51.330;12.374;2023-10-09T12:45:21;16.63;;;7.50;;
12437;SDS011;6283;51.330;12.374;2023-10-09T12:47:58;9.70;;;6.65;;
12437;SDS011;6283;51.330;12.374;2023-10-09T12:50:27;16.73;;;8.30;;
12437;SDS011;6283;51.330;12.374;2023-10-09T12:52:56;14.23;;;7.32;;
12437;SDS011;6283;51.330;12.374;2023-10-09T12:55:27;13.55;;;7.32;;
12437;SDS011;6283;51.330;12.374;2023-10-09T12:57:59;12.70;;;6.78;;
12437;SDS011;6283;51.330;12.374;2023-10-09T13:00:26;16.48;;;7.55;;
12437;SDS011;6283;51.330;12.374;2023-10-09T13:02:52;11.43;;;6.80;;
12437;SDS011;6283;51.330;12.374;2023-10-09T13:05:18;10.13;;;6.65;;
12437;SDS011;6283;51.330;12.374;2023-10-09T13:07:51;13.70;;;7.43;;
12437;SDS011;6283;51.330;12.374;2023-10-09T13:10:18;14.75;;;7.03;;
12437;SDS011;6283;51.330;12.374;2023-10-09T13:12:45;13.60;;;7.85;;
12437;SDS011;6283;51.330;12.374;2023-10-09T13:15:11;16.02;;;6.55;;
12437;SDS011;6283;51.330;12.374;2023-10-09T13:17:37;13.57;;;7.50;;
12437;SDS011;6283;51.330;12.374;2023-10-09T13:20:03;14.27;;;7.13;;
12437;SDS011;6283;51.330;12.374;2023-10-09T13:22:41;16.85;;;7.97;;
12437;SDS011;6283;51.330;12.374;2023-10-09T13:25:10;12.55;;;6.35;;
12437;SDS011;6283;51.330;12.374;2023-10-09T13:27:49;13.13;;;6.78;;
12437;SDS011;6283;51.330;12.374;2023-10-09T13:30:18;13.82;;;7.43;;
12437;SDS011;6283;51.330;12.374;2023-10-09T13:32:50;17.38;;;7.28;;
12437;SDS011;6283;51.330;12.374;2023-10-09T13:35:16;13.63;;;7.47;;
12437;SDS011;6283;51.330;12.374;2023-10-09T13:37:52;13.27;;;6.95;;
12437;SDS011;6283;51.330;12.374;2023-10-09T13:40:21;15.48;;;7.30;;
12437;SDS011;6283;51.330;12.374;2023-10-09T13:42:54;16.95;;;8.23;;
12437;SDS011;6283;51.330;12.374;2023-10-09T13:45:24;16.23;;;6.57;;
12437;SDS011;6283;51.330;12.374;2023-10-09T13:47:54;13.52;;;7.38;;
12437;SDS011;6283;51.330;12.374;2023-10-09T13:50:25;18.45;;;7.68;;
12437;SDS011;6283;51.330;12.374;2023-10-09T13:52:57;14.57;;;7.13;;
12437;SDS011;6283;51.330;12.374;2023-10-09T13:55:23;15.18;;;8.55;;
12437;SDS011;6283;51.330;12.374;2023-10-09T13:57:56;11.90;;;7.47;;
12437;SDS011;6283;51.330;12.374;2023-10-09T14:00:22;22.33;;;8.20;;
12437;SDS011;6283;51.330;12.374;2023-10-09T14:02:58;15.30;;;7.75;;
12437;SDS011;6283;51.330;12.374;2023-10-09T14:05:37;15.43;;;8.55;;
12437;SDS011;6283;51.330;12.374;2023-10-09T14:08:09;15.77;;;8.38;;
12437;SDS011;6283;51.330;12.374;2023-10-09T14:10:37;14.82;;;8.60;;
12437;SDS011;6283;51.330;12.374;2023-10-09T14:13:03;16.33;;;7.93;;
12437;SDS011;6283;51.330;12.374;2023-10-09T14:15:37;16.02;;;7.78;;
12437;SDS011;6283;51.330;12.374;2023-10-09T14:18:06;15.35;;;9.07;;
12437;SDS011;6283;51.330;12.374;2023-10-09T14:20:34;17.80;;;8.95;;
12437;SDS011;6283;51.330;12.374;2023-10-09T14:23:00;14.60;;;7.88;;
12437;SDS011;6283;51.330;12.374;2023-10-09T14:25:36;16.67;;;8.30;;
12437;SDS011;6283;51.330;12.374;2023-10-09T14:28:09;20.88;;;8.27;;
12437;SDS011;6283;51.330;12.374;2023-10-09T14:30:35;16.60;;;8.30;;
12437;SDS011;6283;51.330;12.374;2023-10-09T14:33:13;13.65;;;7.45;;
12437;SDS011;6283;51.330;12.374;2023-10-09T14:35:42;15.27;;;8.18;;
12437;SDS011;6283;51.330;12.374;2023-10-09T14:38:10;16.00;;;8.25;;
12437;SDS011;6283;51.330;12.374;2023-10-09T14:40:43;12.95;;;7.80;;
12437;SDS011;6283;51.330;12.374;2023-10-09T14:43:13;15.02;;;8.05;;
12437;SDS011;6283;51.330;12.374;2023-10-09T14:45:45;15.98;;;7.97;;
12437;SDS011;6283;51.330;12.374;2023-10-09T14:48:17;13.05;;;7.40;;
12437;SDS011;6283;51.330;12.374;2023-10-09T14:50:54;16.13;;;8.38;;
12437;SDS011;6283;51.330;12.374;2023-10-09T14:53:29;17.33;;;8.60;;
12437;SDS011;6283;51.330;12.374;2023-10-09T14:55:55;17.13;;;8.18;;
12437;SDS011;6283;51.330;12.374;2023-10-09T14:58:21;15.13;;;7.90;;
12437;SDS011;6283;51.330;12.374;2023-10-09T15:00:51;17.52;;;8.55;;
12437;SDS011;6283;51.330;12.374;2023-10-09T15:03:16;18.55;;;8.70;;
12437;SDS011;6283;51.330;12.374;2023-10-09T15:05:44;16.58;;;8.77;;
12437;SDS011;6283;51.330;12.374;2023-10-09T15:08:13;17.10;;;8.60;;
12437;SDS011;6283;51.330;12.374;2023-10-09T15:10:49;13.98;;;8.25;;
12437;SDS011;6283;51.330;12.374;2023-10-09T15:13:16;20.15;;;9.10;;
12437;SDS011;6283;51.330;12.374;2023-10-09T15:15:43;18.85;;;8.32;;
12437;SDS011;6283;51.330;12.374;2023-10-09T15:18:09;15.75;;;7.90;;
12437;SDS011;6283;51.330;12.374;2023-10-09T15:20:39;15.70;;;9.40;;
12437;SDS011;6283;51.330;12.374;2023-10-09T15:23:05;15.45;;;7.95;;
12437;SDS011;6283;51.330;12.374;2023-10-09T15:25:34;14.35;;;8.27;;
12437;SDS011;6283;51.330;12.374;2023-10-09T15:28:04;13.88;;;7.90;;
12437;SDS011;6283;51.330;12.374;2023-10-09T15:30:31;13.85;;;8.07;;
12437;SDS011;6283;51.330;12.374;2023-10-09T15:32:58;16.48;;;8.13;;
12437;SDS011;6283;51.330;12.374;2023-10-09T15:35:24;16.10;;;8.15;;
12437;SDS011;6283;51.330;12.374;2023-10-09T15:37:53;11.50;;;7.85;;
12437;SDS011;6283;51.330;12.374;2023-10-09T15:40:19;13.35;;;7.65;;
12437;SDS011;6283;51.330;12.374;2023-10-09T15:42:49;13.63;;;7.93;;
12437;SDS011;6283;51.330;12.374;2023-10-09T15:45:16;18.70;;;8.20;;